createdAt,value
2022-08-14T00:01:03.947Z,5.20
2022-08-14T00:03:37.198Z,4.93
2022-08-14T00:06:13.869Z,5.50
2022-08-14T00:08:51.061Z,4.95
2022-08-14T00:11:17.720Z,5.65
2022-08-14T00:13:44.414Z,5.28
2022-08-14T00:16:40.833Z,5.55
2022-08-14T00:19:19.586Z,6.05
2022-08-14T00:21:50.060Z,6.18
2022-08-14T00:24:23.363Z,5.60
2022-08-14T00:27:02.204Z,6.47
2022-08-14T00:29:33.148Z,5.70
2022-08-14T00:33:01.688Z,6.20
2022-08-14T00:34:56.366Z,6.05
2022-08-14T00:37:23.212Z,6.32
2022-08-14T00:39:50.980Z,6.35
2022-08-14T00:42:52.795Z,6.10
2022-08-14T00:45:10.005Z,6.35
2022-08-14T00:47:44.789Z,6.22
2022-08-14T00:50:17.849Z,6.55
2022-08-14T00:52:52.204Z,6.50
2022-08-14T00:55:19.986Z,6.50
2022-08-14T00:58:07.648Z,6.22
2022-08-14T01:00:37.397Z,6.63
2022-08-14T01:03:16.990Z,6.25
2022-08-14T01:06:02.294Z,6.20
2022-08-14T01:08:57.575Z,5.93
2022-08-14T01:12:02.574Z,5.90
2022-08-14T01:14:29.587Z,6.57
2022-08-14T01:16:56.240Z,6.30
2022-08-14T01:19:43.506Z,6.32
2022-08-14T01:22:12.591Z,6.90
2022-08-14T01:24:43.371Z,7.55
2022-08-14T01:27:17.422Z,6.68
2022-08-14T01:30:03.158Z,7.47
2022-08-14T01:32:35.607Z,6.38
2022-08-14T01:35:19.345Z,6.30
2022-08-14T01:37:56.555Z,6.70
2022-08-14T01:40:36.672Z,6.53
2022-08-14T01:43:18.538Z,6.60
2022-08-14T01:46:06.032Z,7.13
2022-08-14T01:48:37.198Z,7.55
2022-08-14T01:51:06.033Z,8.02
2022-08-14T01:53:54.652Z,7.68
2022-08-14T01:56:37.233Z,7.68
2022-08-14T01:59:38.088Z,8.43
2022-08-14T02:02:18.953Z,6.53
2022-08-14T02:04:55.147Z,6.68
2022-08-14T02:07:27.190Z,6.25
2022-08-14T02:10:13.207Z,6.53
2022-08-14T02:12:46.138Z,6.40
2022-08-14T02:15:21.967Z,6.50
2022-08-14T02:17:49.870Z,6.80
2022-08-14T02:20:17.777Z,8.38
2022-08-14T02:22:51.999Z,7.45
2022-08-14T02:25:20.927Z,8.23
2022-08-14T02:28:23.505Z,8.82
2022-08-14T02:30:38.240Z,8.20
2022-08-14T02:33:07.144Z,9.25
2022-08-14T02:35:33.807Z,9.30
2022-08-14T02:38:07.674Z,8.10
2022-08-14T02:40:38.741Z,8.50
2022-08-14T02:43:07.948Z,9.70
2022-08-14T02:45:38.864Z,9.10
2022-08-14T02:49:04.241Z,9.18
2022-08-14T02:51:07.109Z,8.57
2022-08-14T02:53:37.397Z,8.63
2022-08-14T02:56:30.830Z,9.48
2022-08-14T02:58:52.824Z,9.13
2022-08-14T03:01:24.257Z,6.78
2022-08-14T03:03:58.191Z,7.30
2022-08-14T03:06:34.908Z,7.03
2022-08-14T03:09:11.628Z,7.22
2022-08-14T03:11:39.684Z,6.88
2022-08-14T03:14:12.222Z,6.75
2022-08-14T03:16:45.397Z,6.93
2022-08-14T03:19:16.282Z,6.82
2022-08-14T03:21:46.464Z,7.20
2022-08-14T03:24:23.340Z,6.38
2022-08-14T03:26:56.072Z,6.90
2022-08-14T03:29:26.451Z,6.38
2022-08-14T03:31:54.007Z,6.40
2022-08-14T03:34:24.788Z,6.40
2022-08-14T03:37:28.953Z,7.13
2022-08-14T03:39:59.073Z,7.00
2022-08-14T03:42:35.904Z,7.32
2022-08-14T03:45:20.330Z,7.32
2022-08-14T03:47:58.276Z,7.70
2022-08-14T03:50:30.931Z,7.88
2022-08-14T03:53:02.824Z,8.00
2022-08-14T03:55:30.633Z,6.80
2022-08-14T03:57:57.977Z,8.23
2022-08-14T04:00:44.274Z,8.43
2022-08-14T04:03:17.945Z,8.25
2022-08-14T04:05:50.066Z,8.02
2022-08-14T04:08:30.055Z,7.20
2022-08-14T04:10:59.487Z,8.45
2022-08-14T04:13:31.695Z,8.53
2022-08-14T04:16:06.816Z,9.05
2022-08-14T04:18:42.489Z,8.65
2022-08-14T04:21:10.299Z,8.95
2022-08-14T04:23:37.407Z,9.38
2022-08-14T04:26:14.926Z,8.68
2022-08-14T04:29:08.649Z,9.48
2022-08-14T04:33:02.299Z,9.30
2022-08-14T04:34:28.276Z,9.20
2022-08-14T04:37:22.099Z,9.30
2022-08-14T04:40:10.541Z,9.00
2022-08-14T04:42:56.109Z,9.10
2022-08-14T04:45:23.978Z,9.40
2022-08-14T04:48:12.766Z,9.02
2022-08-14T04:50:54.089Z,10.57
2022-08-14T04:53:34.911Z,10.23
2022-08-14T04:56:03.335Z,10.98
2022-08-14T04:58:34.145Z,11.05
2022-08-14T05:01:02.843Z,10.20
2022-08-14T05:03:33.177Z,10.68
2022-08-14T05:06:01.966Z,10.68
2022-08-14T05:08:31.952Z,11.60
2022-08-14T05:11:19.207Z,10.50
2022-08-14T05:14:33.803Z,10.68
2022-08-14T05:16:33.101Z,10.98
2022-08-14T05:19:18.037Z,10.10
2022-08-14T05:21:57.281Z,10.15
2022-08-14T05:26:54.160Z,10.05
2022-08-14T05:29:21.754Z,9.57
2022-08-14T05:31:48.893Z,9.50
2022-08-14T05:34:17.331Z,8.95
2022-08-14T05:36:50.506Z,9.38
2022-08-14T05:39:28.420Z,9.35
2022-08-14T05:41:54.893Z,8.90
2022-08-14T05:44:22.138Z,9.13
2022-08-14T05:46:48.874Z,9.23
2022-08-14T05:49:16.151Z,9.35
2022-08-14T05:51:46.658Z,9.10
2022-08-14T05:54:13.927Z,10.27
2022-08-14T05:56:54.249Z,10.73
2022-08-14T05:59:36.637Z,9.40
2022-08-14T06:02:06.653Z,10.10
2022-08-14T06:04:33.140Z,9.75
2022-08-14T06:06:59.609Z,10.07
2022-08-14T06:09:26.023Z,11.02
2022-08-14T06:11:53.070Z,9.93
2022-08-14T06:14:23.970Z,11.77
2022-08-14T06:16:52.928Z,10.52
2022-08-14T06:19:19.593Z,9.65
2022-08-14T06:21:46.410Z,10.60
2022-08-14T06:24:18.041Z,10.25
2022-08-14T06:26:54.085Z,9.48
2022-08-14T06:29:23.046Z,9.95
2022-08-14T06:32:00.315Z,10.00
2022-08-14T06:35:02.225Z,9.63
2022-08-14T06:37:13.637Z,9.85
2022-08-14T06:39:44.252Z,8.85
2022-08-14T06:42:22.331Z,9.35
2022-08-14T06:44:57.886Z,8.93
2022-08-14T06:47:24.906Z,9.52
2022-08-14T06:49:56.037Z,8.80
2022-08-14T06:52:24.834Z,10.68
2022-08-14T06:54:51.504Z,9.38
2022-08-14T06:57:18.850Z,11.00
2022-08-14T06:59:48.157Z,10.02
2022-08-14T07:02:35.972Z,9.88
2022-08-14T07:05:23.573Z,10.55
2022-08-14T07:07:51.160Z,10.50
2022-08-14T07:10:17.701Z,11.23
2022-08-14T07:12:54.373Z,11.30
2022-08-14T07:15:29.305Z,10.77
2022-08-14T07:17:55.919Z,10.93
2022-08-14T07:20:31.076Z,11.63
2022-08-14T07:23:07.905Z,11.90
2022-08-14T07:25:42.055Z,11.60
2022-08-14T07:28:20.385Z,11.02
2022-08-14T07:30:51.181Z,12.15
2022-08-14T07:33:20.907Z,10.98
2022-08-14T07:35:58.593Z,11.32
2022-08-14T07:38:32.106Z,11.18
2022-08-14T07:41:11.706Z,11.02
2022-08-14T07:43:42.533Z,11.73
2022-08-14T07:46:10.754Z,11.90
2022-08-14T07:48:43.809Z,11.75
2022-08-14T07:51:11.353Z,11.00
2022-08-14T07:53:40.404Z,12.00
2022-08-14T07:56:21.491Z,11.43
2022-08-14T07:58:54.198Z,12.63
2022-08-14T08:01:26.212Z,11.40
2022-08-14T08:03:59.431Z,11.98
2022-08-14T08:06:26.826Z,12.20
2022-08-14T08:09:00.954Z,13.00
2022-08-14T08:11:34.947Z,11.40
2022-08-14T08:14:17.273Z,11.50
2022-08-14T08:16:46.406Z,12.77
2022-08-14T08:19:14.179Z,12.25
2022-08-14T08:21:43.826Z,11.65
2022-08-14T08:24:12.412Z,11.52
2022-08-14T08:26:41.734Z,11.02
2022-08-14T08:29:09.483Z,11.95
2022-08-14T08:31:51.925Z,11.48
2022-08-14T08:34:20.805Z,10.27
2022-08-14T08:36:50.876Z,10.80
2022-08-14T08:39:22.415Z,11.10
2022-08-14T08:41:53.658Z,11.15
2022-08-14T08:47:05.792Z,10.80
2022-08-14T08:49:48.862Z,11.38
2022-08-14T08:52:31.778Z,10.30
2022-08-14T08:54:59.675Z,11.45
2022-08-14T08:57:27.604Z,10.38
2022-08-14T08:59:55.000Z,10.93
2022-08-14T09:02:26.125Z,9.95
2022-08-14T09:05:02.091Z,10.55
2022-08-14T09:07:28.543Z,11.77
2022-08-14T09:09:59.313Z,11.43
2022-08-14T09:12:31.521Z,9.68
2022-08-14T09:15:00.839Z,9.82
2022-08-14T09:17:28.105Z,10.30
2022-08-14T09:19:55.189Z,9.63
2022-08-14T09:22:43.300Z,8.68
2022-08-14T09:25:10.168Z,8.50
2022-08-14T09:27:38.106Z,9.13
2022-08-14T09:30:30.998Z,7.40
2022-08-14T09:33:12.427Z,7.65
2022-08-14T09:36:18.697Z,7.82
2022-08-14T09:39:05.361Z,7.50
2022-08-14T09:42:21.537Z,7.50
2022-08-14T09:45:07.944Z,6.88
2022-08-14T09:47:49.082Z,7.00
2022-08-14T09:50:25.974Z,7.65
2022-08-14T09:52:59.912Z,7.25
2022-08-14T09:55:36.809Z,7.57
2022-08-14T09:58:19.111Z,7.45
2022-08-14T10:01:00.546Z,7.40
2022-08-14T10:03:33.860Z,7.90
2022-08-14T10:06:19.237Z,7.80
2022-08-14T10:08:52.591Z,7.07
2022-08-14T10:11:24.319Z,7.45
2022-08-14T10:13:57.093Z,6.97
2022-08-14T10:16:33.088Z,7.38
2022-08-14T10:19:15.875Z,7.93
2022-08-14T10:23:14.876Z,6.90
2022-08-14T10:24:50.986Z,7.55
2022-08-14T10:27:26.593Z,7.03
2022-08-14T10:29:58.139Z,7.13
2022-08-14T10:32:36.072Z,7.75
2022-08-14T10:35:14.583Z,7.50
2022-08-14T10:37:52.899Z,7.15
2022-08-14T10:40:44.213Z,7.25
2022-08-14T10:43:26.041Z,7.47
2022-08-14T10:46:04.196Z,7.35
2022-08-14T10:48:56.794Z,7.70
2022-08-14T10:51:30.007Z,7.03
2022-08-14T10:54:01.856Z,6.88
2022-08-14T10:56:44.545Z,6.75
2022-08-14T10:59:11.251Z,7.80
2022-08-14T11:01:41.254Z,7.50
2022-08-14T11:06:53.432Z,7.15
2022-08-14T11:09:20.034Z,7.65
2022-08-14T11:11:55.369Z,6.97
2022-08-14T11:14:23.062Z,6.95
2022-08-14T11:16:54.048Z,7.72
2022-08-14T11:19:25.076Z,6.75
2022-08-14T11:21:55.427Z,6.65
2022-08-14T11:24:50.713Z,6.55
2022-08-14T11:27:19.117Z,6.82
2022-08-14T11:29:52.846Z,6.60
2022-08-14T11:32:28.134Z,6.28
2022-08-14T11:34:58.174Z,6.93
2022-08-14T11:37:39.379Z,6.20
2022-08-14T11:40:16.134Z,5.85
2022-08-14T11:42:57.422Z,5.85
2022-08-14T11:45:29.841Z,5.25
2022-08-14T11:48:13.239Z,5.32
2022-08-14T11:50:43.775Z,5.55
2022-08-14T11:53:31.387Z,6.07
2022-08-14T11:56:06.097Z,5.43
2022-08-14T11:58:34.004Z,4.00
2022-08-14T12:01:07.812Z,3.65
2022-08-14T12:03:51.535Z,3.90
2022-08-14T12:06:29.772Z,4.40
2022-08-14T12:09:08.754Z,4.43
2022-08-14T12:11:47.027Z,5.00
2022-08-14T12:14:31.067Z,4.28
2022-08-14T12:17:12.187Z,4.20
2022-08-14T12:19:45.466Z,4.60
2022-08-14T12:22:12.165Z,5.03
2022-08-14T12:24:52.399Z,4.85
2022-08-14T12:27:19.551Z,4.80
2022-08-14T12:29:55.135Z,4.75
2022-08-14T12:32:21.553Z,4.40
2022-08-14T12:34:54.323Z,4.20
2022-08-14T12:37:30.431Z,4.05
2022-08-14T12:40:12.606Z,3.97
2022-08-14T12:42:52.594Z,3.70
2022-08-14T12:45:31.229Z,5.00
2022-08-14T12:48:21.788Z,4.05
2022-08-14T12:50:54.217Z,4.55
2022-08-14T12:56:18.837Z,4.97
2022-08-14T12:58:52.755Z,5.07
2022-08-14T13:01:28.426Z,5.13
2022-08-14T13:04:08.280Z,5.35
2022-08-14T13:06:37.889Z,5.25
2022-08-14T13:09:07.801Z,4.82
2022-08-14T13:11:44.954Z,4.32
2022-08-14T13:14:17.617Z,3.85
2022-08-14T13:16:45.623Z,4.13
2022-08-14T13:19:18.394Z,4.28
2022-08-14T13:22:05.314Z,4.78
2022-08-14T13:24:37.521Z,4.00
2022-08-14T13:27:05.526Z,4.72
2022-08-14T13:29:39.687Z,5.13
2022-08-14T13:32:09.237Z,5.03
2022-08-14T13:34:37.495Z,5.03
2022-08-14T13:37:07.091Z,4.57
2022-08-14T13:39:36.251Z,5.18
2022-08-14T13:42:08.042Z,4.30
2022-08-14T13:44:36.050Z,5.30
2022-08-14T13:47:06.525Z,5.28
2022-08-14T13:49:37.434Z,5.82
2022-08-14T13:52:48.154Z,5.93
2022-08-14T13:54:55.549Z,5.55
2022-08-14T14:00:02.612Z,5.68
2022-08-14T14:02:41.167Z,5.40
2022-08-14T14:05:18.737Z,4.30
2022-08-14T14:07:50.658Z,5.30
2022-08-14T14:10:28.030Z,4.85
2022-08-14T14:12:56.445Z,5.22
2022-08-14T14:15:28.632Z,5.32
2022-08-14T14:18:15.235Z,5.60
2022-08-14T14:20:57.492Z,5.25
2022-08-14T14:23:23.979Z,5.93
2022-08-14T14:25:57.447Z,5.85
2022-08-14T14:28:31.336Z,5.22
2022-08-14T14:31:07.095Z,5.70
2022-08-14T14:33:47.064Z,5.32
2022-08-14T14:36:22.075Z,5.65
2022-08-14T14:39:03.266Z,5.70
2022-08-14T14:41:37.571Z,5.18
2022-08-14T14:44:13.710Z,5.47
2022-08-14T14:46:49.541Z,5.80
2022-08-14T14:49:18.323Z,5.32
2022-08-14T14:51:51.579Z,5.10
2022-08-14T14:54:31.183Z,6.20
2022-08-14T14:57:03.455Z,5.70
2022-08-14T14:59:33.450Z,5.43
2022-08-14T15:02:09.275Z,5.97
2022-08-14T15:04:43.873Z,5.60
2022-08-14T15:07:12.588Z,5.55
2022-08-14T15:09:40.171Z,5.45
2022-08-14T15:12:28.158Z,6.15
2022-08-14T15:14:57.978Z,5.63
2022-08-14T15:17:28.577Z,6.15
2022-08-14T15:20:04.258Z,6.22
2022-08-14T15:22:31.262Z,5.88
2022-08-14T15:24:57.774Z,6.07
2022-08-14T15:27:26.497Z,6.45
2022-08-14T15:29:53.530Z,5.88
2022-08-14T15:32:23.116Z,6.15
2022-08-14T15:34:51.900Z,5.55
2022-08-14T15:37:22.094Z,6.38
2022-08-14T15:39:49.895Z,6.00
2022-08-14T15:42:20.474Z,5.73
2022-08-14T15:44:57.507Z,5.75
2022-08-14T15:47:28.126Z,6.75
2022-08-14T15:49:58.396Z,6.43
2022-08-14T15:52:32.086Z,6.72
2022-08-14T15:55:03.498Z,6.20
2022-08-14T15:57:31.090Z,6.32
2022-08-14T16:00:43.449Z,6.28
2022-08-14T16:03:12.563Z,6.63
2022-08-14T16:05:42.026Z,6.50
2022-08-14T16:08:29.034Z,7.15
2022-08-14T16:10:56.868Z,6.38
2022-08-14T16:13:41.742Z,7.72
2022-08-14T16:16:34.655Z,6.40
2022-08-14T16:19:07.458Z,7.53
2022-08-14T16:21:39.190Z,6.60
2022-08-14T16:24:06.628Z,6.97
2022-08-14T16:26:33.894Z,6.57
2022-08-14T16:29:07.356Z,6.75
2022-08-14T16:31:36.676Z,6.60
2022-08-14T16:34:44.618Z,7.50
2022-08-14T16:36:51.210Z,6.70
2022-08-14T16:39:17.882Z,6.75
2022-08-14T16:41:45.680Z,7.10
2022-08-14T16:44:21.823Z,6.25
2022-08-14T16:47:01.191Z,6.57
2022-08-14T16:49:35.334Z,7.07
2022-08-14T16:52:25.948Z,6.55
2022-08-14T16:55:07.778Z,6.40
2022-08-14T16:57:46.298Z,7.07
2022-08-14T17:00:33.065Z,6.32
2022-08-14T17:03:11.671Z,6.57
2022-08-14T17:05:46.879Z,6.30
2022-08-14T17:08:32.053Z,6.88
2022-08-14T17:11:09.942Z,7.00
2022-08-14T17:13:59.020Z,7.35
2022-08-14T17:16:37.370Z,6.72
2022-08-14T17:19:05.914Z,6.80
2022-08-14T17:21:41.659Z,6.80
2022-08-14T17:24:55.849Z,7.18
2022-08-14T17:27:00.121Z,7.13
2022-08-14T17:29:32.791Z,6.45
2022-08-14T17:32:06.891Z,7.03
2022-08-14T17:34:53.827Z,6.97
2022-08-14T17:37:28.657Z,6.80
2022-08-14T17:40:15.355Z,6.97
2022-08-14T17:42:51.613Z,7.47
2022-08-14T17:45:26.739Z,7.85
2022-08-14T17:47:56.940Z,7.55
2022-08-14T17:50:58.685Z,7.40
2022-08-14T17:53:27.515Z,7.13
2022-08-14T17:56:01.916Z,7.32
2022-08-14T17:58:38.565Z,7.85
2022-08-14T18:01:13.025Z,7.82
2022-08-14T18:03:46.720Z,7.78
2022-08-14T18:06:38.426Z,6.88
2022-08-14T18:09:08.436Z,6.90
2022-08-14T18:12:01.336Z,7.22
2022-08-14T18:14:32.018Z,7.95
2022-08-14T18:17:00.291Z,6.80
2022-08-14T18:19:29.163Z,6.50
2022-08-14T18:22:00.128Z,6.85
2022-08-14T18:24:31.937Z,6.30
2022-08-14T18:27:14.836Z,6.97
2022-08-14T18:29:56.242Z,6.28
2022-08-14T18:32:27.166Z,6.15
2022-08-14T18:35:11.159Z,6.75
2022-08-14T18:37:41.108Z,6.55
2022-08-14T18:40:22.460Z,6.47
2022-08-14T18:43:03.418Z,6.40
2022-08-14T18:45:33.511Z,6.88
2022-08-14T18:48:18.722Z,5.60
2022-08-14T18:51:06.116Z,5.50
2022-08-14T18:53:55.609Z,6.22
2022-08-14T18:57:01.185Z,6.70
2022-08-14T18:59:35.495Z,6.20
2022-08-14T19:02:30.518Z,6.03
2022-08-14T19:04:59.617Z,5.78
2022-08-14T19:07:33.892Z,6.53
2022-08-14T19:10:10.163Z,6.40
2022-08-14T19:12:52.785Z,5.82
2022-08-14T19:15:21.332Z,6.07
2022-08-14T19:18:14.692Z,6.35
2022-08-14T19:20:52.729Z,5.88
2022-08-14T19:23:42.380Z,6.07
2022-08-14T19:26:36.932Z,6.15
2022-08-14T19:29:23.410Z,6.47
2022-08-14T19:31:55.822Z,6.43
2022-08-14T19:34:36.121Z,6.10
2022-08-14T19:37:06.508Z,5.97
2022-08-14T19:39:56.377Z,5.93
2022-08-14T19:42:28.056Z,5.63
2022-08-14T19:44:57.260Z,6.35
2022-08-14T19:47:38.810Z,5.72
2022-08-14T19:50:31.120Z,5.22
2022-08-14T19:53:11.205Z,5.72
2022-08-14T19:55:39.306Z,5.90
2022-08-14T19:58:12.816Z,5.53
2022-08-14T20:00:51.753Z,5.72
2022-08-14T20:03:24.188Z,6.32
2022-08-14T20:06:03.105Z,6.18
2022-08-14T20:12:00.830Z,6.07
2022-08-14T20:14:28.033Z,6.00
2022-08-14T20:17:03.277Z,5.88
2022-08-14T20:19:37.276Z,5.82
2022-08-14T20:22:37.097Z,6.10
2022-08-14T20:24:54.023Z,5.18
2022-08-14T20:27:40.792Z,5.70
2022-08-14T20:30:34.726Z,5.15
2022-08-14T20:33:11.248Z,5.78
2022-08-14T20:35:52.224Z,5.65
2022-08-14T20:38:29.082Z,6.03
2022-08-14T20:41:10.562Z,5.80
2022-08-14T20:43:59.802Z,5.20
2022-08-14T20:46:38.597Z,6.40
2022-08-14T20:49:16.464Z,5.25
2022-08-14T20:51:58.470Z,4.85
2022-08-14T20:54:34.151Z,5.93
2022-08-14T20:57:11.335Z,5.57
2022-08-14T20:59:43.473Z,5.88
2022-08-14T21:02:30.535Z,5.40
2022-08-14T21:07:44.428Z,5.75
2022-08-14T21:10:35.298Z,5.72
2022-08-14T21:14:08.773Z,6.30
2022-08-14T21:15:58.096Z,5.70
2022-08-14T21:18:35.128Z,5.72
2022-08-14T21:21:18.386Z,6.13
2022-08-14T21:26:33.347Z,5.85
2022-08-14T21:29:14.099Z,6.43
2022-08-14T21:31:41.822Z,5.43
2022-08-14T21:34:31.109Z,5.85
2022-08-14T21:37:07.903Z,5.95
2022-08-14T21:39:37.057Z,6.00
2022-08-14T21:42:05.784Z,5.53
2022-08-14T21:44:42.950Z,6.00
2022-08-14T21:47:12.102Z,5.88
2022-08-14T21:49:40.260Z,5.68
2022-08-14T21:52:50.619Z,5.82
2022-08-14T21:55:08.532Z,5.75
2022-08-14T21:58:45.313Z,5.45
2022-08-14T22:00:35.009Z,6.15
2022-08-14T22:03:06.474Z,5.70
2022-08-14T22:05:37.559Z,6.65
2022-08-14T22:08:06.497Z,5.78
2022-08-14T22:10:34.054Z,5.85
2022-08-14T22:13:01.793Z,5.97
2022-08-14T22:15:30.087Z,6.10
2022-08-14T22:17:58.381Z,5.93
2022-08-14T22:20:28.295Z,5.60
2022-08-14T22:23:00.367Z,5.57
2022-08-14T22:25:32.908Z,6.45
2022-08-14T22:28:01.225Z,6.35
2022-08-14T22:30:27.705Z,5.50
2022-08-14T22:32:57.522Z,6.70
2022-08-14T22:35:24.745Z,6.18
2022-08-14T22:38:36.417Z,6.65
2022-08-14T22:41:01.324Z,6.13
2022-08-14T22:43:27.541Z,6.22
2022-08-14T22:48:29.364Z,7.30
2022-08-14T22:50:56.149Z,6.82
2022-08-14T22:53:24.059Z,6.78
2022-08-14T22:55:56.596Z,5.85
2022-08-14T22:58:30.308Z,6.00
2022-08-14T23:01:00.093Z,6.72
2022-08-14T23:03:28.808Z,5.97
2022-08-14T23:05:55.556Z,6.50
2022-08-14T23:08:59.739Z,6.00
2022-08-14T23:11:10.344Z,6.68
2022-08-14T23:13:39.588Z,6.50
2022-08-14T23:16:08.292Z,6.70
2022-08-14T23:18:37.066Z,6.65
2022-08-14T23:21:03.776Z,6.38
2022-08-14T23:23:30.957Z,6.20
2022-08-14T23:26:46.900Z,6.47
2022-08-14T23:28:58.254Z,6.10
2022-08-14T23:31:34.583Z,6.95
2022-08-14T23:34:08.010Z,6.80
2022-08-14T23:36:54.132Z,6.03
2022-08-14T23:39:30.280Z,7.32
2022-08-14T23:42:04.432Z,6.75
2022-08-14T23:44:35.262Z,6.35
2022-08-14T23:49:49.700Z,6.72
2022-08-14T23:52:50.272Z,6.40
2022-08-14T23:55:11.088Z,6.35
2022-08-14T23:57:38.121Z,6.80
